Time;durP1;ratioP1;P1;durP2;ratioP2;P2;SDS_P1;SDS_P2;PMS_P1;PMS_P2;Temp;Humidity;BMP_temperature;BMP_pressure;BME280_temperature;BME280_humidity;BME280_pressure;Samples;Min_cycle;Max_cycle;Signal;HPM_P1;HPM_P2
2022/03/31 00:00:53;;;;;;;24.73;17.07;;;8.20;99.90;;;;;;4955474;28;20227;-35
2022/03/31 00:03:20;;;;;;;25.37;16.77;;;8.30;99.90;;;;;;4955058;28;20188;-35
2022/03/31 00:05:50;;;;;;;22.60;16.30;;;8.30;99.90;;;;;;4971789;28;20184;-34
2022/03/31 00:08:18;;;;;;;25.03;16.87;;;8.20;99.90;;;;;;4970594;28;20242;-35
2022/03/31 00:10:46;;;;;;;23.30;16.50;;;8.10;99.90;;;;;;4971230;28;20180;-35
2022/03/31 00:13:17;;;;;;;24.30;17.40;;;8.20;99.90;;;;;;4971251;28;20547;-35
2022/03/31 00:15:43;;;;;;;20.90;15.53;;;8.20;99.90;;;;;;4955171;28;20184;-37
2022/03/31 00:18:11;;;;;;;23.70;16.67;;;8.20;99.90;;;;;;4954942;28;20244;-35
2022/03/31 00:20:36;;;;;;;23.47;16.27;;;8.20;99.90;;;;;;4954494;28;20207;-35
2022/03/31 00:23:05;;;;;;;23.23;16.70;;;8.20;99.90;;;;;;4955018;28;20192;-35
2022/03/31 00:25:31;;;;;;;24.80;17.50;;;8.30;99.90;;;;;;4971174;28;20279;-37
2022/03/31 00:27:57;;;;;;;26.07;17.40;;;8.30;99.90;;;;;;4955177;28;20266;-35
2022/03/31 00:30:25;;;;;;;23.70;16.47;;;8.30;99.90;;;;;;4972479;28;20180;-35
2022/03/31 00:32:51;;;;;;;26.87;18.00;;;8.40;99.90;;;;;;4970880;28;20192;-35
2022/03/31 00:35:18;;;;;;;23.33;16.20;;;8.40;99.90;;;;;;4975371;28;20215;-35
2022/03/31 00:37:45;;;;;;;21.40;15.13;;;8.40;99.90;;;;;;4954641;28;20193;-35
2022/03/31 00:40:15;;;;;;;25.93;16.47;;;8.50;99.90;;;;;;4954332;28;20248;-35
2022/03/31 00:42:42;;;;;;;21.67;15.83;;;8.40;99.90;;;;;;4955111;28;20244;-35
2022/03/31 00:45:18;;;;;;;24.40;15.67;;;8.50;99.90;;;;;;4954947;28;20215;-35
2022/03/31 00:47:45;;;;;;;22.47;15.83;;;8.50;99.90;;;;;;4970962;28;20185;-35
2022/03/31 00:50:13;;;;;;;21.30;14.97;;;8.40;99.90;;;;;;4970380;28;20227;-35
2022/03/31 00:52:39;;;;;;;22.77;15.87;;;8.40;99.90;;;;;;4954988;28;20188;-36
2022/03/31 00:55:10;;;;;;;23.87;16.40;;;8.40;99.90;;;;;;4970719;28;20204;-35
2022/03/31 00:57:37;;;;;;;20.97;15.03;;;8.30;99.90;;;;;;4953540;28;20194;-35
2022/03/31 01:00:07;;;;;;;20.43;15.30;;;8.30;99.90;;;;;;4953730;28;20287;-35
2022/03/31 01:02:40;;;;;;;24.03;16.60;;;8.30;99.90;;;;;;4971941;28;20172;-34
2022/03/31 01:05:07;;;;;;;24.80;15.67;;;8.30;99.90;;;;;;4953111;28;20208;-35
2022/03/31 01:07:40;;;;;;;24.27;16.37;;;8.30;99.90;;;;;;4954609;28;20197;-35
2022/03/31 01:10:08;;;;;;;23.10;16.90;;;8.30;99.90;;;;;;4938717;28;20181;-35
2022/03/31 01:12:35;;;;;;;21.17;15.27;;;8.20;99.90;;;;;;4954809;28;20185;-35
2022/03/31 01:15:15;;;;;;;24.57;16.87;;;8.20;99.90;;;;;;4954115;28;20208;-35
2022/03/31 01:17:43;;;;;;;24.17;17.23;;;8.30;99.90;;;;;;4938400;28;20193;-35
2022/03/31 01:20:12;;;;;;;23.83;16.50;;;8.30;99.90;;;;;;4954536;28;20208;-35
2022/03/31 01:22:38;;;;;;;25.00;17.33;;;8.30;99.90;;;;;;4954535;28;20189;-35
2022/03/31 01:25:07;;;;;;;24.53;15.73;;;8.40;99.90;;;;;;4954545;28;20207;-35
2022/03/31 01:27:35;;;;;;;24.67;17.13;;;8.40;99.90;;;;;;4954547;28;20176;-35
2022/03/31 01:30:01;;;;;;;24.27;17.10;;;8.40;99.90;;;;;;4954462;28;20259;-35
2022/03/31 01:32:27;;;;;;;25.60;17.90;;;8.40;99.90;;;;;;4972234;28;20188;-35
2022/03/31 01:34:54;;;;;;;23.80;17.20;;;8.40;99.90;;;;;;4957868;28;20289;-35
2022/03/31 01:37:20;;;;;;;24.50;17.83;;;8.40;99.90;;;;;;4957340;28;20199;-35
2022/03/31 01:39:45;;;;;;;25.43;17.33;;;8.40;99.90;;;;;;4957940;28;20204;-35
2022/03/31 01:42:12;;;;;;;25.37;17.00;;;8.40;99.90;;;;;;4942027;28;20185;-35
2022/03/31 01:44:38;;;;;;;28.00;17.73;;;8.40;99.90;;;;;;4941673;28;20220;-35
2022/03/31 01:47:04;;;;;;;25.87;17.57;;;8.40;99.90;;;;;;4957988;28;20187;-36
2022/03/31 01:49:30;;;;;;;25.53;17.93;;;8.40;99.90;;;;;;4973637;28;20560;-35
2022/03/31 01:51:56;;;;;;;26.67;18.40;;;8.40;99.90;;;;;;4958113;28;20188;-35
2022/03/31 01:54:22;;;;;;;26.33;18.37;;;8.50;99.90;;;;;;4957730;28;20200;-35
2022/03/31 01:56:48;;;;;;;28.33;18.87;;;8.50;99.90;;;;;;4957613;28;20180;-35
2022/03/31 01:59:14;;;;;;;27.53;18.63;;;8.40;99.90;;;;;;4957601;28;20224;-36
2022/03/31 02:01:40;;;;;;;28.70;18.50;;;8.40;99.90;;;;;;4957757;28;20191;-34
2022/03/31 02:04:05;;;;;;;26.07;19.03;;;8.30;99.90;;;;;;4957198;28;20204;-35
2022/03/31 02:06:31;;;;;;;26.50;18.10;;;8.30;99.90;;;;;;4957695;28;20179;-35
2022/03/31 02:08:57;;;;;;;27.97;19.50;;;8.30;99.90;;;;;;4989493;28;20260;-35
2022/03/31 02:11:24;;;;;;;30.73;19.67;;;8.30;99.90;;;;;;4941354;28;20189;-36
2022/03/31 02:13:49;;;;;;;27.63;18.90;;;8.30;99.90;;;;;;4973139;28;20213;-35
2022/03/31 02:16:15;;;;;;;27.70;18.87;;;8.20;99.90;;;;;;4973548;28;20197;-35
2022/03/31 02:18:41;;;;;;;29.90;19.83;;;8.10;99.90;;;;;;4956773;28;20307;-35
2022/03/31 02:21:07;;;;;;;27.20;18.53;;;8.00;99.90;;;;;;4957117;28;20195;-35
2022/03/31 02:23:33;;;;;;;28.50;19.83;;;8.00;99.90;;;;;;4940970;28;20214;-35
2022/03/31 02:25:59;;;;;;;29.40;18.70;;;8.00;99.90;;;;;;4957128;28;20187;-36
2022/03/31 02:28:25;;;;;;;30.50;19.80;;;8.10;99.90;;;;;;4989770;28;20183;-36
2022/03/31 02:30:51;;;;;;;26.87;19.37;;;8.10;99.90;;;;;;4956607;28;20271;-35
2022/03/31 02:33:18;;;;;;;28.57;19.30;;;8.00;99.90;;;;;;4956728;28;20653;-35
2022/03/31 02:35:43;;;;;;;28.00;19.23;;;7.90;99.90;;;;;;4972884;28;20188;-35
2022/03/31 02:38:09;;;;;;;30.30;19.63;;;7.80;99.90;;;;;;4956792;28;20185;-36
2022/03/31 02:40:35;;;;;;;25.73;17.90;;;7.70;99.90;;;;;;4940566;28;20217;-36
2022/03/31 02:43:01;;;;;;;30.33;19.73;;;7.70;99.90;;;;;;4940438;28;20176;-35
2022/03/31 02:45:27;;;;;;;28.17;18.40;;;7.60;99.90;;;;;;4988700;28;20211;-35
2022/03/31 02:47:53;;;;;;;31.50;19.57;;;7.60;99.90;;;;;;4989045;28;20271;-35
2022/03/31 02:50:19;;;;;;;31.67;19.83;;;7.50;99.90;;;;;;4956516;28;20192;-35
2022/03/31 02:55:31;;;;;;;27.23;18.50;;;7.50;99.90;;;;;;4956591;28;20214;-35
2022/03/31 02:58:02;;;;;;;28.70;18.57;;;7.40;99.90;;;;;;4972380;28;20188;-35
2022/03/31 03:00:32;;;;;;;30.70;18.73;;;7.40;99.90;;;;;;4971838;28;20263;-35
2022/03/31 03:03:03;;;;;;;26.93;18.80;;;7.40;99.90;;;;;;4955530;28;20658;-35
2022/03/31 03:05:30;;;;;;;31.23;20.07;;;7.50;99.90;;;;;;4972002;28;20203;-35
2022/03/31 03:07:56;;;;;;;32.00;20.10;;;7.50;99.90;;;;;;4973434;28;20195;-35
2022/03/31 03:10:22;;;;;;;29.50;19.77;;;7.60;99.90;;;;;;4973282;28;20180;-35
2022/03/31 03:12:49;;;;;;;31.77;20.57;;;7.60;99.90;;;;;;4939971;28;20275;-36
2022/03/31 03:15:17;;;;;;;32.43;20.20;;;7.60;99.90;;;;;;4956085;28;20261;-35
2022/03/31 03:17:45;;;;;;;30.53;20.37;;;7.60;99.90;;;;;;4971727;28;20190;-35
2022/03/31 03:20:13;;;;;;;32.97;20.87;;;7.60;99.90;;;;;;4971401;28;20703;-35
2022/03/31 03:22:43;;;;;;;35.23;22.50;;;7.60;99.90;;;;;;4972230;28;20249;-35
2022/03/31 03:25:09;;;;;;;31.03;20.50;;;7.60;99.90;;;;;;4955793;28;20201;-35
2022/03/31 03:27:35;;;;;;;32.27;21.07;;;7.70;99.90;;;;;;4971942;28;20216;-35
2022/03/31 03:30:01;;;;;;;31.37;20.83;;;7.70;99.90;;;;;;4955538;28;20195;-35
2022/03/31 03:32:27;;;;;;;32.43;21.13;;;7.70;99.90;;;;;;4971658;28;20187;-36
2022/03/31 03:34:53;;;;;;;33.90;21.40;;;7.70;99.90;;;;;;4955448;28;20215;-35
2022/03/31 03:37:19;;;;;;;31.37;21.30;;;7.80;99.90;;;;;;4955830;28;20191;-36
2022/03/31 03:39:45;;;;;;;31.67;21.37;;;7.80;99.90;;;;;;4954397;28;20258;-35
2022/03/31 03:42:11;;;;;;;31.20;21.20;;;7.80;99.90;;;;;;4939641;28;20195;-36
2022/03/31 03:44:38;;;;;;;32.33;20.33;;;7.90;99.90;;;;;;5163953;23;20235;-32
2022/03/31 03:47:05;;;;;;;30.03;19.13;;;7.90;99.90;;;;;;4974316;28;20178;-43
2022/03/31 03:49:31;;;;;;;29.27;19.80;;;7.90;99.90;;;;;;4957965;28;20246;-44
2022/03/31 03:51:57;;;;;;;32.20;20.03;;;7.90;99.90;;;;;;4991707;28;20188;-43
2022/03/31 03:54:22;;;;;;;28.23;19.60;;;7.80;99.90;;;;;;4968182;28;20208;-43
2022/03/31 03:56:48;;;;;;;29.37;18.47;;;7.80;99.90;;;;;;4955272;28;20188;-43
2022/03/31 03:59:14;;;;;;;26.97;18.77;;;7.80;99.90;;;;;;4972407;28;20291;-43
2022/03/31 04:01:40;;;;;;;28.20;18.87;;;7.90;99.90;;;;;;4953405;28;20192;-43
2022/03/31 04:04:05;;;;;;;34.17;21.47;;;7.90;99.90;;;;;;4938542;28;20224;-44
2022/03/31 04:06:31;;;;;;;28.17;19.30;;;7.90;99.90;;;;;;4955215;28;20195;-43
2022/03/31 04:08:57;;;;;;;28.90;19.30;;;7.90;99.90;;;;;;4962151;28;20246;-43
2022/03/31 04:11:23;;;;;;;28.40;18.83;;;7.90;99.90;;;;;;4962546;28;20191;-43
2022/03/31 04:13:49;;;;;;;29.87;19.33;;;7.90;99.90;;;;;;4964712;28;20183;-41
2022/03/31 04:16:15;;;;;;;28.63;18.97;;;7.90;99.90;;;;;;4953683;28;20243;-44
2022/03/31 04:18:41;;;;;;;30.63;18.87;;;7.90;99.90;;;;;;4938708;29;20588;-41
2022/03/31 04:21:07;;;;;;;28.90;19.77;;;7.90;99.90;;;;;;4935832;29;20188;-44
2022/03/31 04:23:32;;;;;;;27.83;19.13;;;7.90;99.90;;;;;;4956607;28;20195;-43
2022/03/31 04:26:00;;;;;;;26.77;19.17;;;7.80;99.90;;;;;;4938873;28;20286;-43
2022/03/31 04:28:26;;;;;;;28.17;19.20;;;7.80;99.90;;;;;;4954972;28;20175;-43
2022/03/31 04:30:52;;;;;;;28.97;19.53;;;7.80;99.90;;;;;;4940639;28;20180;-46
2022/03/31 04:33:17;;;;;;;27.27;18.60;;;7.90;99.90;;;;;;4937333;28;20185;-43
2022/03/31 04:35:43;;;;;;;28.23;19.63;;;7.80;99.90;;;;;;4919768;29;20213;-43
2022/03/31 04:38:09;;;;;;;27.57;19.10;;;7.80;99.90;;;;;;4965237;28;20215;-45
2022/03/31 04:40:35;;;;;;;27.90;19.47;;;7.80;99.90;;;;;;4938641;28;20217;-43
2022/03/31 04:43:00;;;;;;;28.07;20.47;;;7.80;99.90;;;;;;4935343;29;20181;-41
2022/03/31 04:45:26;;;;;;;28.50;19.03;;;7.80;99.90;;;;;;4919510;29;20296;-45
2022/03/31 04:47:52;;;;;;;28.03;18.90;;;7.80;99.90;;;;;;4951146;28;20248;-43
2022/03/31 04:50:18;;;;;;;28.87;19.50;;;7.80;99.90;;;;;;4949482;28;20191;-42
2022/03/31 04:52:44;;;;;;;30.83;20.83;;;7.80;99.90;;;;;;4962630;28;20231;-44
2022/03/31 04:55:10;;;;;;;29.50;19.20;;;7.80;99.90;;;;;;4959916;28;20223;-43
2022/03/31 04:57:36;;;;;;;29.60;20.13;;;7.80;99.90;;;;;;4953841;28;20183;-44
2022/03/31 05:00:05;;;;;;;28.20;19.07;;;7.80;99.90;;;;;;4953066;28;20776;-44
2022/03/31 05:02:31;;;;;;;31.43;19.53;;;7.80;99.90;;;;;;4954108;28;20210;-43
2022/03/31 05:04:57;;;;;;;26.90;19.17;;;7.80;99.90;;;;;;4954262;28;20273;-42
2022/03/31 05:07:22;;;;;;;28.33;19.17;;;7.80;99.90;;;;;;4957987;28;20212;-41
2022/03/31 05:09:48;;;;;;;30.57;20.23;;;7.80;99.90;;;;;;4959936;28;20183;-43
2022/03/31 05:12:14;;;;;;;27.40;18.60;;;7.80;99.90;;;;;;4942086;28;20185;-44
2022/03/31 05:14:40;;;;;;;28.60;19.30;;;7.80;99.90;;;;;;4941890;28;20203;-43
2022/03/31 05:17:07;;;;;;;32.77;20.73;;;7.80;99.90;;;;;;4994991;23;20237;-88
2022/03/31 05:19:34;;;;;;;28.47;18.53;;;7.80;99.90;;;;;;4980516;28;20224;-88
2022/03/31 05:22:00;;;;;;;28.17;18.97;;;7.80;99.90;;;;;;4977437;28;20297;-88
2022/03/31 05:24:26;;;;;;;28.00;19.63;;;7.80;99.90;;;;;;4961830;28;20191;-88
2022/03/31 05:26:52;;;;;;;28.07;20.23;;;7.80;99.90;;;;;;4961119;28;20183;-89
2022/03/31 05:29:19;;;;;;;30.33;19.97;;;7.80;99.90;;;;;;4960818;28;20186;-88
2022/03/31 05:31:45;;;;;;;28.07;19.00;;;7.80;99.90;;;;;;4974827;28;20226;-88
2022/03/31 05:34:12;;;;;;;31.90;19.50;;;7.80;99.90;;;;;;4977338;28;20198;-88
2022/03/31 05:36:37;;;;;;;25.83;18.73;;;7.90;99.90;;;;;;4977859;28;20191;-88
2022/03/31 05:39:04;;;;;;;29.83;18.90;;;7.90;99.90;;;;;;4961606;28;20210;-88
2022/03/31 05:41:31;;;;;;;27.00;18.53;;;7.90;99.90;;;;;;4978054;28;20201;-88
2022/03/31 05:43:57;;;;;;;27.37;18.70;;;7.90;99.90;;;;;;4961919;28;20195;-88
2022/03/31 05:46:24;;;;;;;27.27;19.27;;;7.90;99.90;;;;;;4962536;28;20202;-89
2022/03/31 05:48:51;;;;;;;27.90;19.60;;;7.90;99.90;;;;;;4962266;28;20191;-88
2022/03/31 05:51:18;;;;;;;27.13;18.80;;;7.90;99.90;;;;;;4974504;28;20183;-88
2022/03/31 05:53:44;;;;;;;26.57;18.63;;;7.90;99.90;;;;;;4980351;28;20207;-88
2022/03/31 05:56:11;;;;;;;27.73;19.03;;;7.90;99.90;;;;;;4980225;28;20269;-88
2022/03/31 05:58:37;;;;;;;30.10;19.73;;;7.90;99.90;;;;;;4979849;28;20201;-88
2022/03/31 06:01:04;;;;;;;30.10;19.40;;;7.90;99.90;;;;;;4976514;28;20184;-88
2022/03/31 06:03:30;;;;;;;26.37;18.57;;;7.90;99.90;;;;;;4960591;28;20288;-88
2022/03/31 06:05:56;;;;;;;30.67;19.40;;;7.90;99.90;;;;;;4960558;28;20197;-88
2022/03/31 06:08:23;;;;;;;30.03;20.60;;;7.90;99.90;;;;;;4974275;28;20675;-88
2022/03/31 06:10:50;;;;;;;25.27;18.67;;;7.90;99.90;;;;;;4975811;28;20186;-88
2022/03/31 06:13:16;;;;;;;28.80;19.30;;;7.90;99.90;;;;;;4976584;28;20209;-88
2022/03/31 06:15:41;;;;;;;28.70;21.10;;;7.90;99.90;;;;;;4977207;28;20549;-88
2022/03/31 06:18:07;;;;;;;29.03;19.63;;;7.80;99.90;;;;;;4978634;28;20180;-87
2022/03/31 06:20:34;;;;;;;29.53;20.17;;;7.80;99.90;;;;;;4978491;28;20207;-87
2022/03/31 06:23:03;;;;;;;30.37;20.40;;;7.90;99.90;;;;;;4977217;28;20219;-88
2022/03/31 06:25:30;;;;;;;27.77;19.60;;;7.80;99.90;;;;;;4976169;28;20189;-87
2022/03/31 06:27:56;;;;;;;30.87;20.63;;;7.80;99.90;;;;;;4976291;28;20211;-87
2022/03/31 06:30:22;;;;;;;31.47;20.60;;;7.80;99.90;;;;;;4975483;28;20298;-87
2022/03/31 06:32:49;;;;;;;35.77;21.70;;;7.80;99.90;;;;;;4976732;28;20206;-87
2022/03/31 06:35:15;;;;;;;32.67;22.13;;;7.90;99.90;;;;;;4976801;28;20268;-87
2022/03/31 06:37:45;;;;;;;31.73;21.13;;;7.90;99.90;;;;;;4979776;28;20198;-87
2022/03/31 06:40:16;;;;;;;31.70;20.63;;;7.90;99.90;;;;;;4975750;28;20221;-86
2022/03/31 06:42:43;;;;;;;29.27;20.33;;;7.90;99.90;;;;;;4976567;28;20286;-87
2022/03/31 06:45:12;;;;;;;28.93;20.00;;;7.90;99.90;;;;;;4967438;28;20221;-88
2022/03/31 06:47:43;;;;;;;32.10;20.57;;;7.90;99.90;;;;;;4998378;28;20184;-87
2022/03/31 06:50:10;;;;;;;33.97;21.20;;;7.90;99.90;;;;;;4969519;28;20261;-87
2022/03/31 06:52:36;;;;;;;33.80;22.27;;;7.90;99.90;;;;;;4991699;28;20205;-87
2022/03/31 06:55:03;;;;;;;32.30;20.97;;;7.90;99.90;;;;;;4975710;28;20200;-86
2022/03/31 06:57:29;;;;;;;30.50;20.17;;;7.80;99.90;;;;;;4975545;28;20211;-87
2022/03/31 06:59:55;;;;;;;33.17;20.63;;;7.80;99.90;;;;;;4959607;28;20255;-87
2022/03/31 07:02:21;;;;;;;33.83;20.87;;;7.90;99.90;;;;;;4959515;28;20206;-86
2022/03/31 07:04:47;;;;;;;30.93;20.17;;;7.90;99.90;;;;;;4959159;28;20182;-88
2022/03/31 07:07:13;;;;;;;32.97;20.90;;;7.90;99.90;;;;;;4959329;28;20193;-86
2022/03/31 07:09:39;;;;;;;30.70;20.20;;;8.00;99.90;;;;;;4959205;28;20296;-87
2022/03/31 07:12:05;;;;;;;33.50;21.17;;;8.00;99.90;;;;;;4959301;28;20645;-87
2022/03/31 07:14:35;;;;;;;35.13;22.23;;;7.90;99.90;;;;;;4959369;28;20191;-87
2022/03/31 07:17:01;;;;;;;30.60;20.87;;;7.80;99.90;;;;;;4959746;28;20291;-87
2022/03/31 07:19:27;;;;;;;33.60;22.00;;;7.80;99.90;;;;;;4978289;28;20215;-87
2022/03/31 07:21:53;;;;;;;36.10;21.93;;;7.90;99.90;;;;;;4994672;28;20217;-87
2022/03/31 07:24:19;;;;;;;30.30;20.37;;;8.00;99.90;;;;;;4978448;28;20186;-87
2022/03/31 07:26:45;;;;;;;32.63;20.83;;;7.90;99.90;;;;;;4966491;28;20191;-87
2022/03/31 07:29:10;;;;;;;32.00;21.53;;;8.00;99.90;;;;;;4958384;28;20193;-87
2022/03/31 07:31:36;;;;;;;31.40;21.23;;;8.00;99.90;;;;;;4974277;28;20238;-87
2022/03/31 07:34:02;;;;;;;30.47;20.13;;;8.00;99.90;;;;;;4958817;28;20193;-87
2022/03/31 07:36:28;;;;;;;33.43;20.73;;;8.10;99.90;;;;;;4967473;28;20183;-87
2022/03/31 07:38:54;;;;;;;31.87;20.53;;;8.10;99.90;;;;;;4959599;28;20215;-87
2022/03/31 07:41:20;;;;;;;32.43;20.93;;;8.10;99.90;;;;;;4959070;28;20183;-87
2022/03/31 07:43:46;;;;;;;32.87;21.63;;;8.10;99.90;;;;;;4958565;28;20203;-87
2022/03/31 07:46:12;;;;;;;32.00;19.97;;;8.20;99.90;;;;;;4960987;28;20267;-87
2022/03/31 07:48:38;;;;;;;26.50;19.60;;;8.20;99.90;;;;;;4958568;28;20194;-87
2022/03/31 07:51:04;;;;;;;34.40;20.70;;;8.20;99.90;;;;;;4974099;28;20176;-87
2022/03/31 07:53:33;;;;;;;30.90;20.63;;;8.30;99.90;;;;;;4974817;28;20203;-87
2022/03/31 07:56:00;;;;;;;30.77;20.93;;;8.30;99.90;;;;;;4975016;28;20203;-87
2022/03/31 07:58:26;;;;;;;31.83;20.93;;;8.40;99.90;;;;;;4958655;28;20189;-87
2022/03/31 08:00:52;;;;;;;33.27;20.73;;;8.40;99.90;;;;;;4959355;28;20211;-87
2022/03/31 08:03:19;;;;;;;28.70;20.37;;;8.40;99.90;;;;;;4958612;28;20203;-87
2022/03/31 08:05:46;;;;;;;33.97;20.80;;;8.40;99.90;;;;;;4960229;28;20184;-87
2022/03/31 08:08:12;;;;;;;30.43;21.03;;;8.50;99.90;;;;;;4977961;28;20198;-87
2022/03/31 08:10:38;;;;;;;32.10;20.23;;;8.40;99.90;;;;;;4977472;28;20207;-87
2022/03/31 08:13:04;;;;;;;30.73;20.90;;;8.30;99.90;;;;;;4977814;28;20245;-87
2022/03/31 08:15:31;;;;;;;30.07;20.93;;;8.40;99.90;;;;;;4977025;28;20192;-86
2022/03/31 08:17:58;;;;;;;30.47;21.20;;;8.40;99.90;;;;;;4976484;28;20183;-87
2022/03/31 08:20:25;;;;;;;30.13;21.07;;;8.50;99.90;;;;;;4976937;28;20210;-87
2022/03/31 08:22:51;;;;;;;32.70;20.97;;;8.50;99.90;;;;;;4977362;28;20203;-87
2022/03/31 08:25:17;;;;;;;32.20;20.73;;;8.50;99.90;;;;;;4977362;28;20232;-86
2022/03/31 08:27:44;;;;;;;29.10;20.00;;;8.50;99.90;;;;;;4973993;28;20220;-86
2022/03/31 08:30:19;;;;;;;29.13;20.27;;;8.50;99.90;;;;;;4973911;28;20249;-87
2022/03/31 08:32:46;;;;;;;31.40;20.57;;;8.30;99.90;;;;;;4989710;28;20265;-87
2022/03/31 08:35:15;;;;;;;29.97;20.57;;;8.40;99.90;;;;;;4982942;28;20187;-86
2022/03/31 08:37:41;;;;;;;29.77;20.17;;;8.60;99.90;;;;;;4977180;28;20194;-87
2022/03/31 08:40:11;;;;;;;32.83;20.67;;;8.70;99.90;;;;;;4977339;28;20237;-87
2022/03/31 08:42:38;;;;;;;30.33;19.70;;;8.80;99.90;;;;;;4983322;28;20203;-87
2022/03/31 08:45:05;;;;;;;29.57;20.60;;;8.70;99.90;;;;;;4980126;28;20206;-87
2022/03/31 08:47:30;;;;;;;35.17;20.80;;;8.70;99.90;;;;;;4980524;28;20236;-86
2022/03/31 08:49:57;;;;;;;27.50;20.03;;;8.80;99.90;;;;;;4980240;28;20183;-87
2022/03/31 08:52:24;;;;;;;28.60;20.13;;;8.80;99.90;;;;;;4964517;28;20199;-86
2022/03/31 08:54:50;;;;;;;26.87;19.23;;;8.90;99.90;;;;;;4978189;28;20191;-87
2022/03/31 08:57:17;;;;;;;28.10;19.03;;;8.90;99.90;;;;;;4991990;28;20189;-87
2022/03/31 08:59:43;;;;;;;27.23;17.77;;;9.00;99.90;;;;;;4985150;28;20230;-87
2022/03/31 09:02:20;;;;;;;28.37;20.20;;;9.10;99.90;;;;;;4991787;28;20223;-86
2022/03/31 09:04:46;;;;;;;24.90;18.10;;;9.10;99.90;;;;;;4998594;28;20202;-87
2022/03/31 09:07:12;;;;;;;28.23;19.13;;;9.20;99.90;;;;;;4978961;28;20237;-87
2022/03/31 09:09:50;;;;;;;25.33;17.77;;;9.30;99.90;;;;;;4963746;28;20184;-87
2022/03/31 09:12:16;;;;;;;29.50;18.97;;;9.40;99.90;;;;;;4963983;28;20266;-87
2022/03/31 09:14:43;;;;;;;27.10;19.00;;;9.40;99.90;;;;;;4981571;28;20182;-87
2022/03/31 09:17:13;;;;;;;29.40;20.33;;;9.50;99.90;;;;;;4984382;28;20206;-87
2022/03/31 09:19:40;;;;;;;28.33;19.60;;;9.50;99.90;;;;;;4983804;28;20210;-87
2022/03/31 09:22:09;;;;;;;32.40;21.70;;;9.60;99.90;;;;;;4984055;28;20191;-87
2022/03/31 09:24:36;;;;;;;27.80;18.87;;;9.50;99.90;;;;;;4981055;28;20195;-87
2022/03/31 09:27:04;;;;;;;27.07;19.03;;;9.50;99.90;;;;;;4981086;28;20323;-87
2022/03/31 09:29:32;;;;;;;26.30;19.43;;;9.50;99.90;;;;;;4981159;28;20180;-87
2022/03/31 09:32:08;;;;;;;29.20;19.37;;;9.50;99.90;;;;;;4964625;28;20294;-86
2022/03/31 09:34:39;;;;;;;27.40;18.70;;;9.50;99.90;;;;;;4996368;28;20178;-87
2022/03/31 09:37:05;;;;;;;27.70;19.17;;;9.40;99.90;;;;;;4983330;28;20190;-87
2022/03/31 09:39:31;;;;;;;32.13;20.53;;;9.40;99.90;;;;;;4983047;28;20276;-87
2022/03/31 09:41:57;;;;;;;29.97;19.83;;;9.50;99.90;;;;;;4979561;28;20209;-87
2022/03/31 09:44:25;;;;;;;30.53;19.17;;;9.40;99.90;;;;;;4979981;28;20180;-87
2022/03/31 09:46:52;;;;;;;31.60;19.90;;;9.40;99.90;;;;;;4980129;28;20184;-87
2022/03/31 09:49:18;;;;;;;30.23;18.77;;;9.50;99.90;;;;;;4979842;28;20184;-87
2022/03/31 09:51:47;;;;;;;28.47;18.07;;;9.50;99.90;;;;;;4963776;28;20202;-87
2022/03/31 09:54:13;;;;;;;28.27;18.80;;;9.60;99.90;;;;;;4960228;28;20184;-87
2022/03/31 09:56:40;;;;;;;25.13;18.67;;;9.60;99.90;;;;;;4960968;28;20180;-87
2022/03/31 09:59:08;;;;;;;31.57;19.07;;;9.60;99.90;;;;;;4978232;28;20699;-87
2022/03/31 10:01:36;;;;;;;27.17;19.43;;;9.40;99.90;;;;;;4996152;28;20229;-87
2022/03/31 10:04:02;;;;;;;25.77;18.27;;;9.20;99.90;;;;;;4979958;28;20179;-87
2022/03/31 10:06:29;;;;;;;25.57;17.80;;;9.30;99.90;;;;;;4980084;28;20635;-87
2022/03/31 10:08:57;;;;;;;28.20;18.77;;;9.50;99.90;;;;;;4975854;28;20188;-87
2022/03/31 10:11:24;;;;;;;24.60;17.80;;;9.60;99.90;;;;;;4976656;28;20692;-87
2022/03/31 10:14:09;;;;;;;23.80;17.43;;;9.80;99.90;;;;;;4976647;28;20183;-87
2022/03/31 10:16:42;;;;;;;22.87;17.73;;;10.00;99.90;;;;;;4976071;28;20194;-87
2022/03/31 10:19:08;;;;;;;26.07;17.60;;;10.20;99.90;;;;;;4988089;28;20211;-87
2022/03/31 10:21:34;;;;;;;24.97;18.17;;;10.30;99.90;;;;;;4995652;28;20180;-87
2022/03/31 10:26:54;;;;;;;25.57;17.47;;;10.40;99.90;;;;;;4995643;28;20183;-87
2022/03/31 10:29:20;;;;;;;27.60;17.17;;;10.60;99.90;;;;;;4975705;28;20187;-87
2022/03/31 10:31:46;;;;;;;23.10;17.33;;;10.70;99.90;;;;;;4960280;28;20306;-87
2022/03/31 10:34:14;;;;;;;24.87;17.83;;;10.70;99.90;;;;;;4960043;28;20191;-87
2022/03/31 10:36:47;;;;;;;21.27;16.00;;;10.80;99.90;;;;;;4959739;28;20184;-87
2022/03/31 10:39:24;;;;;;;21.80;15.90;;;11.00;99.90;;;;;;4975978;28;20239;-87
2022/03/31 10:42:02;;;;;;;30.60;21.87;;;11.00;99.90;;;;;;4959731;28;20203;-87
2022/03/31 10:44:28;;;;;;;22.63;16.30;;;11.00;99.90;;;;;;4960050;28;20184;-87
2022/03/31 10:47:06;;;;;;;21.20;14.27;;;10.90;99.90;;;;;;4970979;28;20191;-87
2022/03/31 10:49:34;;;;;;;19.57;15.17;;;11.00;99.90;;;;;;4959972;28;20188;-87
2022/03/31 10:52:23;;;;;;;20.30;14.03;;;11.10;99.90;;;;;;4976510;28;20231;-87
2022/03/31 10:54:51;;;;;;;21.33;17.47;;;11.40;99.90;;;;;;4960449;28;20192;-87
2022/03/31 10:57:18;;;;;;;25.33;17.80;;;11.50;99.90;;;;;;4994008;28;20179;-87
2022/03/31 10:59:48;;;;;;;21.40;16.43;;;11.60;99.90;;;;;;4995753;28;20207;-87
2022/03/31 11:02:20;;;;;;;22.50;16.83;;;11.40;99.90;;;;;;4979426;28;20663;-87
2022/03/31 11:04:55;;;;;;;21.77;15.83;;;11.30;99.90;;;;;;4974662;28;20646;-87
2022/03/31 11:07:26;;;;;;;23.63;16.70;;;11.40;99.90;;;;;;4982409;28;20274;-87
2022/03/31 11:10:12;;;;;;;22.43;15.97;;;11.50;99.90;;;;;;4979786;28;20608;-87
2022/03/31 11:12:39;;;;;;;21.50;15.97;;;11.50;99.90;;;;;;4995709;28;20230;-87
2022/03/31 11:15:13;;;;;;;21.30;15.37;;;11.70;99.90;;;;;;4975886;28;20187;-87
2022/03/31 11:17:41;;;;;;;19.60;14.83;;;11.80;99.90;;;;;;4976234;28;20203;-87
2022/03/31 11:20:17;;;;;;;20.33;15.83;;;11.90;99.90;;;;;;4959667;28;20219;-87
2022/03/31 11:22:47;;;;;;;20.53;15.30;;;12.30;99.90;;;;;;4975594;28;20203;-87
2022/03/31 11:25:14;;;;;;;19.77;14.80;;;12.60;99.90;;;;;;4970096;28;20204;-87
2022/03/31 11:27:42;;;;;;;18.57;14.80;;;12.60;99.90;;;;;;4975296;28;20181;-87
2022/03/31 11:30:10;;;;;;;21.77;15.30;;;12.70;99.90;;;;;;4975678;28;20191;-83
2022/03/31 11:32:37;;;;;;;18.50;14.93;;;12.50;99.90;;;;;;4985013;28;20193;-87
2022/03/31 11:35:09;;;;;;;16.57;13.50;;;12.10;99.90;;;;;;4992483;28;20212;-87
2022/03/31 11:37:46;;;;;;;18.07;14.00;;;12.20;99.90;;;;;;4979143;28;20209;-87
2022/03/31 11:40:23;;;;;;;21.20;16.37;;;12.30;99.90;;;;;;4976494;28;20269;-87
2022/03/31 11:42:51;;;;;;;18.90;13.07;;;12.30;99.90;;;;;;4979173;28;20206;-87
2022/03/31 11:45:33;;;;;;;18.40;13.83;;;12.20;99.90;;;;;;4979074;28;20175;-87
2022/03/31 11:48:08;;;;;;;19.10;13.67;;;12.30;99.90;;;;;;4976098;28;20230;-87
2022/03/31 11:50:37;;;;;;;17.73;13.23;;;12.30;99.90;;;;;;4979195;28;20224;-86
2022/03/31 11:53:14;;;;;;;18.07;13.70;;;12.50;99.90;;;;;;4979669;28;20211;-86
2022/03/31 11:55:40;;;;;;;14.70;12.30;;;12.50;99.90;;;;;;4980300;28;20259;-87
2022/03/31 11:58:08;;;;;;;15.37;11.73;;;12.30;99.90;;;;;;4980129;28;20255;-86
2022/03/31 12:00:34;;;;;;;15.97;12.83;;;12.40;99.90;;;;;;4980201;28;20182;-87
2022/03/31 12:03:07;;;;;;;17.13;12.87;;;12.40;99.90;;;;;;4979879;28;20295;-87
2022/03/31 12:05:33;;;;;;;16.13;11.50;;;12.40;99.90;;;;;;4980168;28;20224;-87
2022/03/31 12:08:00;;;;;;;15.87;12.10;;;12.50;99.90;;;;;;4980192;28;20207;-87
2022/03/31 12:10:29;;;;;;;17.47;11.93;;;12.50;99.90;;;;;;4979912;28;20284;-86
2022/03/31 12:12:56;;;;;;;17.93;12.30;;;12.50;99.90;;;;;;4979977;28;20191;-86
2022/03/31 12:15:26;;;;;;;16.67;13.23;;;12.50;99.90;;;;;;4976854;28;20272;-87
2022/03/31 12:18:07;;;;;;;19.37;13.63;;;12.50;99.90;;;;;;4976754;28;20273;-86
2022/03/31 12:20:39;;;;;;;18.93;13.80;;;12.00;99.90;;;;;;4976343;28;20186;-87
2022/03/31 12:23:28;;;;;;;19.90;13.53;;;11.70;99.90;;;;;;4960873;28;20200;-87
2022/03/31 12:25:55;;;;;;;18.97;13.70;;;11.50;99.90;;;;;;4964935;28;20190;-87
2022/03/31 12:28:25;;;;;;;16.10;12.30;;;11.20;99.90;;;;;;4976595;28;20179;-87
2022/03/31 12:30:54;;;;;;;17.53;12.77;;;11.20;99.90;;;;;;4976345;28;20200;-87
2022/03/31 12:33:30;;;;;;;18.17;12.53;;;11.20;99.90;;;;;;4976284;28;20205;-86
2022/03/31 12:36:02;;;;;;;16.57;11.60;;;11.20;99.90;;;;;;4984253;28;20183;-87
2022/03/31 12:38:46;;;;;;;14.87;11.03;;;11.40;99.90;;;;;;4976219;28;20167;-87
2022/03/31 12:41:22;;;;;;;16.07;12.67;;;11.50;99.90;;;;;;4980125;28;20171;-87
2022/03/31 12:44:03;;;;;;;16.60;11.93;;;11.40;99.90;;;;;;4975850;28;20319;-87